< < Back
Terminal Aerodrome Forecast


Current Version              Previous Versions:   1  2  3  4  5  6  7  8  9  

Terminal Aerodrome Forecast

979
FTUS44 KMOB 261732
TAFPNS
TAF
KPNS 261732Z 2618/2718 19013KT P6SM VCTS BKN023CB
      TEMPO 2618/2622 VRB20KT 2SM TSRA BKN025CB
     FM270000 21015KT 4SM BR VCSH OVC025
     FM270600 19008KT P6SM VCSH OVC050
      TEMPO 2712/2716 4SM SHRA OVC030=



Latest METAR

440
SAUS70 KWBC 270900
MTRPNS
METAR KPNS 270853Z 22005KT 10SM CLR 27/23 A2999 RMK AO2 SLP157 T02670228
56012


USA.gov is the U.S. government's official web portal to all federal, state and local government web resources and services.